sensor_id;sensor_type;location;lat;lon;timestamp;P1;durP1;ratioP1;P2;durP2;ratioP2
71622;SDS011;59473;53.214;5.728;2022-08-18T00:00:11;25.90;;;10.33;;
71622;SDS011;59473;53.214;5.728;2022-08-18T00:02:40;31.77;;;12.10;;
71622;SDS011;59473;53.214;5.728;2022-08-18T00:05:06;50.42;;;12.20;;
71622;SDS011;59473;53.214;5.728;2022-08-18T00:07:31;39.33;;;12.48;;
71622;SDS011;59473;53.214;5.728;2022-08-18T00:09:58;35.77;;;12.90;;
71622;SDS011;59473;53.214;5.728;2022-08-18T00:12:25;26.58;;;11.90;;
71622;SDS011;59473;53.214;5.728;2022-08-18T00:14:50;36.57;;;11.77;;
71622;SDS011;59473;53.214;5.728;2022-08-18T00:17:16;32.53;;;12.30;;
71622;SDS011;59473;53.214;5.728;2022-08-18T00:19:42;34.30;;;13.15;;
71622;SDS011;59473;53.214;5.728;2022-08-18T00:22:07;32.70;;;13.80;;
71622;SDS011;59473;53.214;5.728;2022-08-18T00:24:33;31.07;;;13.77;;
71622;SDS011;59473;53.214;5.728;2022-08-18T00:26:58;37.80;;;13.93;;
71622;SDS011;59473;53.214;5.728;2022-08-18T00:29:24;33.40;;;14.18;;
71622;SDS011;59473;53.214;5.728;2022-08-18T00:31:49;30.40;;;13.50;;
71622;SDS011;59473;53.214;5.728;2022-08-18T00:34:15;33.03;;;13.90;;
71622;SDS011;59473;53.214;5.728;2022-08-18T00:36:40;37.53;;;14.30;;
71622;SDS011;59473;53.214;5.728;2022-08-18T00:39:05;31.20;;;14.40;;
71622;SDS011;59473;53.214;5.728;2022-08-18T00:41:30;33.17;;;12.80;;
71622;SDS011;59473;53.214;5.728;2022-08-18T00:43:56;32.50;;;12.70;;
71622;SDS011;59473;53.214;5.728;2022-08-18T00:46:29;31.63;;;12.88;;
71622;SDS011;59473;53.214;5.728;2022-08-18T00:48:54;37.53;;;13.32;;
71622;SDS011;59473;53.214;5.728;2022-08-18T00:52:02;38.63;;;13.93;;
71622;SDS011;59473;53.214;5.728;2022-08-18T00:54:13;30.10;;;11.85;;
71622;SDS011;59473;53.214;5.728;2022-08-18T00:56:41;31.23;;;12.07;;
71622;SDS011;59473;53.214;5.728;2022-08-18T01:01:33;25.93;;;11.93;;
71622;SDS011;59473;53.214;5.728;2022-08-18T01:04:20;32.30;;;11.40;;
71622;SDS011;59473;53.214;5.728;2022-08-18T01:06:49;36.95;;;12.57;;
71622;SDS011;59473;53.214;5.728;2022-08-18T01:09:16;30.73;;;13.13;;
71622;SDS011;59473;53.214;5.728;2022-08-18T01:11:42;40.63;;;14.05;;
71622;SDS011;59473;53.214;5.728;2022-08-18T01:14:08;44.15;;;14.40;;
71622;SDS011;59473;53.214;5.728;2022-08-18T01:16:33;35.10;;;13.73;;
71622;SDS011;59473;53.214;5.728;2022-08-18T01:19:17;35.22;;;12.60;;
71622;SDS011;59473;53.214;5.728;2022-08-18T01:22:04;33.28;;;13.77;;
71622;SDS011;59473;53.214;5.728;2022-08-18T01:24:33;31.33;;;12.85;;
71622;SDS011;59473;53.214;5.728;2022-08-18T01:27:18;40.20;;;12.68;;
71622;SDS011;59473;53.214;5.728;2022-08-18T01:29:47;35.43;;;14.30;;
71622;SDS011;59473;53.214;5.728;2022-08-18T01:32:20;36.75;;;13.32;;
71622;SDS011;59473;53.214;5.728;2022-08-18T01:34:47;30.55;;;12.55;;
71622;SDS011;59473;53.214;5.728;2022-08-18T01:37:13;33.15;;;12.40;;
71622;SDS011;59473;53.214;5.728;2022-08-18T01:39:39;30.38;;;12.15;;
71622;SDS011;59473;53.214;5.728;2022-08-18T01:42:04;27.30;;;11.50;;
71622;SDS011;59473;53.214;5.728;2022-08-18T01:44:30;30.37;;;11.47;;
71622;SDS011;59473;53.214;5.728;2022-08-18T01:46:55;31.57;;;10.83;;
71622;SDS011;59473;53.214;5.728;2022-08-18T01:49:20;30.30;;;10.70;;
71622;SDS011;59473;53.214;5.728;2022-08-18T01:51:46;50.22;;;11.77;;
71622;SDS011;59473;53.214;5.728;2022-08-18T01:54:13;26.67;;;10.10;;
71622;SDS011;59473;53.214;5.728;2022-08-18T01:56:39;26.77;;;10.60;;
71622;SDS011;59473;53.214;5.728;2022-08-18T01:59:05;31.70;;;12.13;;
71622;SDS011;59473;53.214;5.728;2022-08-18T02:01:36;31.50;;;11.10;;
71622;SDS011;59473;53.214;5.728;2022-08-18T02:04:02;27.77;;;12.65;;
71622;SDS011;59473;53.214;5.728;2022-08-18T02:06:31;28.27;;;11.50;;
71622;SDS011;59473;53.214;5.728;2022-08-18T02:08:57;24.00;;;11.23;;
71622;SDS011;59473;53.214;5.728;2022-08-18T02:11:22;23.63;;;11.50;;
71622;SDS011;59473;53.214;5.728;2022-08-18T02:13:47;25.70;;;11.83;;
71622;SDS011;59473;53.214;5.728;2022-08-18T02:16:12;28.63;;;12.77;;
71622;SDS011;59473;53.214;5.728;2022-08-18T02:18:38;35.35;;;12.55;;
71622;SDS011;59473;53.214;5.728;2022-08-18T02:21:05;37.07;;;13.90;;
71622;SDS011;59473;53.214;5.728;2022-08-18T02:23:32;34.53;;;14.13;;
71622;SDS011;59473;53.214;5.728;2022-08-18T02:25:57;37.47;;;13.63;;
71622;SDS011;59473;53.214;5.728;2022-08-18T02:28:23;30.93;;;14.63;;
71622;SDS011;59473;53.214;5.728;2022-08-18T02:30:48;33.40;;;13.17;;
71622;SDS011;59473;53.214;5.728;2022-08-18T02:33:13;37.33;;;13.27;;
71622;SDS011;59473;53.214;5.728;2022-08-18T02:35:38;28.77;;;12.37;;
71622;SDS011;59473;53.214;5.728;2022-08-18T02:38:05;33.47;;;12.40;;
71622;SDS011;59473;53.214;5.728;2022-08-18T02:40:30;32.22;;;11.07;;
71622;SDS011;59473;53.214;5.728;2022-08-18T02:42:57;32.03;;;11.40;;
71622;SDS011;59473;53.214;5.728;2022-08-18T02:45:23;27.33;;;11.03;;
71622;SDS011;59473;53.214;5.728;2022-08-18T02:47:52;28.13;;;11.07;;
71622;SDS011;59473;53.214;5.728;2022-08-18T02:50:17;35.00;;;11.30;;
71622;SDS011;59473;53.214;5.728;2022-08-18T02:52:43;28.50;;;11.70;;
71622;SDS011;59473;53.214;5.728;2022-08-18T02:55:08;30.07;;;10.23;;
71622;SDS011;59473;53.214;5.728;2022-08-18T02:57:34;25.23;;;10.95;;
71622;SDS011;59473;53.214;5.728;2022-08-18T02:59:59;27.43;;;10.37;;
71622;SDS011;59473;53.214;5.728;2022-08-18T03:02:24;34.43;;;10.40;;
71622;SDS011;59473;53.214;5.728;2022-08-18T03:04:49;26.90;;;10.87;;
71622;SDS011;59473;53.214;5.728;2022-08-18T03:07:15;24.43;;;9.73;;
71622;SDS011;59473;53.214;5.728;2022-08-18T03:09:41;21.65;;;9.25;;
71622;SDS011;59473;53.214;5.728;2022-08-18T03:12:07;27.65;;;9.50;;
71622;SDS011;59473;53.214;5.728;2022-08-18T03:14:33;22.17;;;9.40;;
71622;SDS011;59473;53.214;5.728;2022-08-18T03:16:59;20.80;;;9.48;;
71622;SDS011;59473;53.214;5.728;2022-08-18T03:19:26;23.43;;;10.20;;
71622;SDS011;59473;53.214;5.728;2022-08-18T03:21:53;29.88;;;10.10;;
71622;SDS011;59473;53.214;5.728;2022-08-18T03:24:20;24.73;;;9.48;;
71622;SDS011;59473;53.214;5.728;2022-08-18T03:26:45;22.42;;;9.52;;
71622;SDS011;59473;53.214;5.728;2022-08-18T03:29:11;24.17;;;8.90;;
71622;SDS011;59473;53.214;5.728;2022-08-18T03:31:37;21.30;;;9.20;;
71622;SDS011;59473;53.214;5.728;2022-08-18T03:34:03;20.08;;;8.80;;
71622;SDS011;59473;53.214;5.728;2022-08-18T03:36:29;25.70;;;8.87;;
71622;SDS011;59473;53.214;5.728;2022-08-18T03:38:56;21.58;;;9.10;;
71622;SDS011;59473;53.214;5.728;2022-08-18T03:41:22;20.83;;;9.32;;
71622;SDS011;59473;53.214;5.728;2022-08-18T03:43:49;19.73;;;8.93;;
71622;SDS011;59473;53.214;5.728;2022-08-18T03:46:14;18.70;;;8.03;;
71622;SDS011;59473;53.214;5.728;2022-08-18T03:48:41;18.15;;;8.43;;
71622;SDS011;59473;53.214;5.728;2022-08-18T03:51:07;20.13;;;8.40;;
71622;SDS011;59473;53.214;5.728;2022-08-18T03:53:33;19.05;;;8.07;;
71622;SDS011;59473;53.214;5.728;2022-08-18T03:55:59;25.60;;;7.85;;
71622;SDS011;59473;53.214;5.728;2022-08-18T03:58:24;16.73;;;7.97;;
71622;SDS011;59473;53.214;5.728;2022-08-18T04:00:50;18.53;;;8.00;;
71622;SDS011;59473;53.214;5.728;2022-08-18T04:03:15;14.67;;;7.80;;
71622;SDS011;59473;53.214;5.728;2022-08-18T04:05:40;16.00;;;7.57;;
71622;SDS011;59473;53.214;5.728;2022-08-18T04:08:05;15.53;;;7.80;;
71622;SDS011;59473;53.214;5.728;2022-08-18T04:10:31;19.97;;;7.87;;
71622;SDS011;59473;53.214;5.728;2022-08-18T04:12:56;16.65;;;7.90;;
71622;SDS011;59473;53.214;5.728;2022-08-18T04:15:21;19.80;;;8.00;;
71622;SDS011;59473;53.214;5.728;2022-08-18T04:17:47;21.60;;;8.03;;
71622;SDS011;59473;53.214;5.728;2022-08-18T04:20:12;32.60;;;8.70;;
71622;SDS011;59473;53.214;5.728;2022-08-18T04:22:37;24.27;;;7.57;;
71622;SDS011;59473;53.214;5.728;2022-08-18T04:25:03;17.03;;;7.67;;
71622;SDS011;59473;53.214;5.728;2022-08-18T04:27:28;20.85;;;8.00;;
71622;SDS011;59473;53.214;5.728;2022-08-18T04:29:53;25.50;;;8.57;;
71622;SDS011;59473;53.214;5.728;2022-08-18T04:32:21;26.85;;;8.70;;
71622;SDS011;59473;53.214;5.728;2022-08-18T04:34:46;23.20;;;7.75;;
71622;SDS011;59473;53.214;5.728;2022-08-18T04:37:11;19.23;;;8.13;;
71622;SDS011;59473;53.214;5.728;2022-08-18T04:39:39;19.83;;;8.02;;
71622;SDS011;59473;53.214;5.728;2022-08-18T04:42:04;20.73;;;7.40;;
71622;SDS011;59473;53.214;5.728;2022-08-18T04:44:29;17.17;;;7.77;;
71622;SDS011;59473;53.214;5.728;2022-08-18T04:46:55;16.45;;;7.50;;
71622;SDS011;59473;53.214;5.728;2022-08-18T04:49:22;15.23;;;5.27;;
71622;SDS011;59473;53.214;5.728;2022-08-18T04:51:49;20.90;;;5.97;;
71622;SDS011;59473;53.214;5.728;2022-08-18T04:54:33;15.27;;;5.30;;
71622;SDS011;59473;53.214;5.728;2022-08-18T04:57:06;18.40;;;5.75;;
71622;SDS011;59473;53.214;5.728;2022-08-18T04:59:31;15.20;;;5.53;;
71622;SDS011;59473;53.214;5.728;2022-08-18T05:01:57;20.60;;;5.40;;
71622;SDS011;59473;53.214;5.728;2022-08-18T05:04:24;21.27;;;5.95;;
71622;SDS011;59473;53.214;5.728;2022-08-18T05:06:52;13.68;;;5.30;;
71622;SDS011;59473;53.214;5.728;2022-08-18T05:09:17;14.90;;;5.37;;
71622;SDS011;59473;53.214;5.728;2022-08-18T05:11:43;21.87;;;5.60;;
71622;SDS011;59473;53.214;5.728;2022-08-18T05:14:08;18.43;;;5.90;;
71622;SDS011;59473;53.214;5.728;2022-08-18T05:16:34;18.00;;;6.00;;
71622;SDS011;59473;53.214;5.728;2022-08-18T05:19:07;18.75;;;5.85;;
71622;SDS011;59473;53.214;5.728;2022-08-18T05:21:33;19.38;;;6.18;;
71622;SDS011;59473;53.214;5.728;2022-08-18T05:24:00;23.85;;;6.72;;
71622;SDS011;59473;53.214;5.728;2022-08-18T05:26:26;18.92;;;6.28;;
71622;SDS011;59473;53.214;5.728;2022-08-18T05:28:51;17.43;;;6.37;;
71622;SDS011;59473;53.214;5.728;2022-08-18T05:31:18;20.33;;;6.03;;
71622;SDS011;59473;53.214;5.728;2022-08-18T05:33:45;18.10;;;6.00;;
71622;SDS011;59473;53.214;5.728;2022-08-18T05:41:27;18.50;;;5.70;;
71622;SDS011;59473;53.214;5.728;2022-08-18T05:43:53;15.68;;;5.20;;
71622;SDS011;59473;53.214;5.728;2022-08-18T05:46:23;14.47;;;5.23;;
71622;SDS011;59473;53.214;5.728;2022-08-18T05:48:50;12.80;;;5.40;;
71622;SDS011;59473;53.214;5.728;2022-08-18T05:51:21;16.23;;;5.83;;
71622;SDS011;59473;53.214;5.728;2022-08-18T05:53:49;16.95;;;5.97;;
71622;SDS011;59473;53.214;5.728;2022-08-18T05:56:33;17.85;;;6.30;;
71622;SDS011;59473;53.214;5.728;2022-08-18T05:59:45;17.63;;;5.78;;
71622;SDS011;59473;53.214;5.728;2022-08-18T06:04:43;13.48;;;5.15;;
71622;SDS011;59473;53.214;5.728;2022-08-18T06:07:12;17.33;;;4.95;;
71622;SDS011;59473;53.214;5.728;2022-08-18T06:10:12;15.38;;;5.22;;
71622;SDS011;59473;53.214;5.728;2022-08-18T06:20:23;10.60;;;4.35;;
71622;SDS011;59473;53.214;5.728;2022-08-18T06:22:54;12.70;;;4.30;;
71622;SDS011;59473;53.214;5.728;2022-08-18T06:25:27;13.50;;;4.85;;
71622;SDS011;59473;53.214;5.728;2022-08-18T06:27:56;11.70;;;4.00;;
71622;SDS011;59473;53.214;5.728;2022-08-18T06:30:25;12.85;;;4.20;;
71622;SDS011;59473;53.214;5.728;2022-08-18T06:33:11;14.38;;;4.90;;
71622;SDS011;59473;53.214;5.728;2022-08-18T06:41:08;16.40;;;4.80;;
71622;SDS011;59473;53.214;5.728;2022-08-18T06:43:34;15.07;;;6.03;;
71622;SDS011;59473;53.214;5.728;2022-08-18T06:46:02;17.17;;;5.70;;
71622;SDS011;59473;53.214;5.728;2022-08-18T06:48:32;16.67;;;5.78;;
71622;SDS011;59473;53.214;5.728;2022-08-18T06:51:01;17.40;;;4.75;;
71622;SDS011;59473;53.214;5.728;2022-08-18T06:58:57;23.88;;;5.10;;
71622;SDS011;59473;53.214;5.728;2022-08-18T07:01:37;17.38;;;5.35;;
71622;SDS011;59473;53.214;5.728;2022-08-18T07:04:02;17.50;;;5.93;;
71622;SDS011;59473;53.214;5.728;2022-08-18T07:06:28;21.03;;;6.97;;
71622;SDS011;59473;53.214;5.728;2022-08-18T07:08:55;15.68;;;6.25;;
71622;SDS011;59473;53.214;5.728;2022-08-18T07:11:39;17.45;;;6.20;;
71622;SDS011;59473;53.214;5.728;2022-08-18T07:14:17;19.40;;;6.13;;
71622;SDS011;59473;53.214;5.728;2022-08-18T07:16:45;15.70;;;5.53;;
71622;SDS011;59473;53.214;5.728;2022-08-18T07:19:11;18.23;;;5.90;;
71622;SDS011;59473;53.214;5.728;2022-08-18T07:21:37;13.93;;;4.80;;
71622;SDS011;59473;53.214;5.728;2022-08-18T07:24:08;13.50;;;4.70;;
71622;SDS011;59473;53.214;5.728;2022-08-18T07:29:19;15.07;;;4.63;;
71622;SDS011;59473;53.214;5.728;2022-08-18T07:31:46;12.02;;;4.85;;
71622;SDS011;59473;53.214;5.728;2022-08-18T07:37:16;12.88;;;4.60;;
71622;SDS011;59473;53.214;5.728;2022-08-18T07:40:03;15.52;;;4.85;;
71622;SDS011;59473;53.214;5.728;2022-08-18T07:45:02;18.67;;;5.97;;
71622;SDS011;59473;53.214;5.728;2022-08-18T07:47:39;13.90;;;5.40;;
71622;SDS011;59473;53.214;5.728;2022-08-18T07:50:05;14.63;;;4.90;;
71622;SDS011;59473;53.214;5.728;2022-08-18T07:52:35;15.60;;;4.93;;
71622;SDS011;59473;53.214;5.728;2022-08-18T07:57:46;8.57;;;3.70;;
71622;SDS011;59473;53.214;5.728;2022-08-18T08:00:18;9.05;;;3.20;;
71622;SDS011;59473;53.214;5.728;2022-08-18T08:03:08;12.45;;;3.53;;
71622;SDS011;59473;53.214;5.728;2022-08-18T08:08:42;12.05;;;3.80;;
71622;SDS011;59473;53.214;5.728;2022-08-18T08:11:12;8.65;;;2.40;;
71622;SDS011;59473;53.214;5.728;2022-08-18T08:16:23;9.27;;;2.53;;
71622;SDS011;59473;53.214;5.728;2022-08-18T08:18:55;8.20;;;2.20;;
71622;SDS011;59473;53.214;5.728;2022-08-18T08:21:22;6.45;;;2.00;;
71622;SDS011;59473;53.214;5.728;2022-08-18T08:23:51;7.28;;;2.05;;
71622;SDS011;59473;53.214;5.728;2022-08-18T08:28:47;5.80;;;1.70;;
71622;SDS011;59473;53.214;5.728;2022-08-18T08:34:13;6.22;;;1.80;;
71622;SDS011;59473;53.214;5.728;2022-08-18T08:36:40;5.03;;;1.73;;
71622;SDS011;59473;53.214;5.728;2022-08-18T08:39:26;6.82;;;2.25;;
71622;SDS011;59473;53.214;5.728;2022-08-18T08:41:59;6.68;;;1.63;;
71622;SDS011;59473;53.214;5.728;2022-08-18T08:44:30;5.10;;;1.50;;
71622;SDS011;59473;53.214;5.728;2022-08-18T08:47:06;6.05;;;2.10;;
71622;SDS011;59473;53.214;5.728;2022-08-18T08:49:36;5.53;;;1.70;;
71622;SDS011;59473;53.214;5.728;2022-08-18T08:52:20;7.25;;;1.98;;
71622;SDS011;59473;53.214;5.728;2022-08-18T08:54:53;6.22;;;1.90;;
71622;SDS011;59473;53.214;5.728;2022-08-18T08:57:21;7.13;;;2.33;;
71622;SDS011;59473;53.214;5.728;2022-08-18T08:59:49;5.28;;;1.92;;
71622;SDS011;59473;53.214;5.728;2022-08-18T09:02:24;5.33;;;1.80;;
71622;SDS011;59473;53.214;5.728;2022-08-18T09:04:59;7.95;;;1.80;;
71622;SDS011;59473;53.214;5.728;2022-08-18T09:07:32;5.93;;;2.00;;
71622;SDS011;59473;53.214;5.728;2022-08-18T09:22:51;7.07;;;2.20;;
71622;SDS011;59473;53.214;5.728;2022-08-18T09:30:57;7.25;;;1.40;;
71622;SDS011;59473;53.214;5.728;2022-08-18T09:36:11;6.38;;;1.70;;
71622;SDS011;59473;53.214;5.728;2022-08-18T09:38:46;6.68;;;1.92;;
71622;SDS011;59473;53.214;5.728;2022-08-18T09:41:34;5.15;;;1.73;;
71622;SDS011;59473;53.214;5.728;2022-08-18T09:44:05;3.88;;;1.35;;
71622;SDS011;59473;53.214;5.728;2022-08-18T09:51:55;5.13;;;1.80;;
71622;SDS011;59473;53.214;5.728;2022-08-18T09:54:22;6.38;;;1.58;;
71622;SDS011;59473;53.214;5.728;2022-08-18T09:59:49;4.57;;;1.80;;
71622;SDS011;59473;53.214;5.728;2022-08-18T10:02:00;5.40;;;1.63;;
71622;SDS011;59473;53.214;5.728;2022-08-18T10:04:32;6.43;;;1.50;;
71622;SDS011;59473;53.214;5.728;2022-08-18T10:07:12;4.50;;;1.70;;
71622;SDS011;59473;53.214;5.728;2022-08-18T10:09:57;4.18;;;1.13;;
71622;SDS011;59473;53.214;5.728;2022-08-18T10:12:27;6.93;;;2.05;;
71622;SDS011;59473;53.214;5.728;2022-08-18T10:22:31;4.80;;;1.60;;
71622;SDS011;59473;53.214;5.728;2022-08-18T10:24:58;5.70;;;1.55;;
71622;SDS011;59473;53.214;5.728;2022-08-18T10:32:55;4.25;;;1.33;;
71622;SDS011;59473;53.214;5.728;2022-08-18T10:38:00;5.78;;;1.30;;
71622;SDS011;59473;53.214;5.728;2022-08-18T10:40:26;5.47;;;1.30;;
71622;SDS011;59473;53.214;5.728;2022-08-18T10:45:37;6.75;;;1.83;;
71622;SDS011;59473;53.214;5.728;2022-08-18T10:48:22;4.75;;;1.38;;
71622;SDS011;59473;53.214;5.728;2022-08-18T11:03:41;4.45;;;1.55;;
71622;SDS011;59473;53.214;5.728;2022-08-18T11:06:09;3.00;;;0.97;;
71622;SDS011;59473;53.214;5.728;2022-08-18T11:08:45;4.90;;;1.27;;
71622;SDS011;59473;53.214;5.728;2022-08-18T11:11:11;3.83;;;1.17;;
71622;SDS011;59473;53.214;5.728;2022-08-18T11:14:23;6.05;;;1.10;;
71622;SDS011;59473;53.214;5.728;2022-08-18T11:16:30;3.15;;;0.95;;
71622;SDS011;59473;53.214;5.728;2022-08-18T11:18:57;5.00;;;2.00;;
71622;SDS011;59473;53.214;5.728;2022-08-18T11:26:29;5.23;;;1.80;;
71622;SDS011;59473;53.214;5.728;2022-08-18T11:28:55;4.80;;;1.42;;
71622;SDS011;59473;53.214;5.728;2022-08-18T11:31:20;4.10;;;1.10;;
71622;SDS011;59473;53.214;5.728;2022-08-18T11:33:45;3.37;;;1.10;;
71622;SDS011;59473;53.214;5.728;2022-08-18T11:36:12;5.40;;;1.17;;
71622;SDS011;59473;53.214;5.728;2022-08-18T11:38:40;2.97;;;1.15;;
71622;SDS011;59473;53.214;5.728;2022-08-18T11:41:19;5.30;;;1.20;;
71622;SDS011;59473;53.214;5.728;2022-08-18T11:43:53;3.85;;;1.00;;
71622;SDS011;59473;53.214;5.728;2022-08-18T11:48:45;3.53;;;1.07;;
71622;SDS011;59473;53.214;5.728;2022-08-18T11:58:41;3.57;;;1.13;;
71622;SDS011;59473;53.214;5.728;2022-08-18T12:01:26;3.28;;;1.10;;
71622;SDS011;59473;53.214;5.728;2022-08-18T12:03:52;5.40;;;1.45;;
71622;SDS011;59473;53.214;5.728;2022-08-18T12:06:23;3.33;;;1.40;;
71622;SDS011;59473;53.214;5.728;2022-08-18T12:08:59;3.90;;;1.20;;
71622;SDS011;59473;53.214;5.728;2022-08-18T12:11:36;3.80;;;1.17;;
71622;SDS011;59473;53.214;5.728;2022-08-18T12:14:09;3.85;;;1.63;;
71622;SDS011;59473;53.214;5.728;2022-08-18T12:16:40;4.67;;;1.43;;
71622;SDS011;59473;53.214;5.728;2022-08-18T12:19:07;4.28;;;1.38;;
71622;SDS011;59473;53.214;5.728;2022-08-18T12:24:31;4.28;;;1.15;;
71622;SDS011;59473;53.214;5.728;2022-08-18T12:26:57;4.90;;;1.70;;
71622;SDS011;59473;53.214;5.728;2022-08-18T12:29:22;4.95;;;1.48;;
71622;SDS011;59473;53.214;5.728;2022-08-18T12:31:49;4.00;;;1.30;;
71622;SDS011;59473;53.214;5.728;2022-08-18T12:34:15;4.38;;;1.38;;
71622;SDS011;59473;53.214;5.728;2022-08-18T12:36:41;4.13;;;1.40;;
71622;SDS011;59473;53.214;5.728;2022-08-18T12:39:06;4.17;;;1.40;;
71622;SDS011;59473;53.214;5.728;2022-08-18T12:41:32;5.13;;;1.33;;
71622;SDS011;59473;53.214;5.728;2022-08-18T12:43:57;4.93;;;1.47;;
71622;SDS011;59473;53.214;5.728;2022-08-18T12:46:22;6.03;;;1.60;;
71622;SDS011;59473;53.214;5.728;2022-08-18T12:48:47;5.27;;;1.50;;
71622;SDS011;59473;53.214;5.728;2022-08-18T12:51:13;4.17;;;1.53;;
71622;SDS011;59473;53.214;5.728;2022-08-18T12:53:38;4.05;;;1.42;;
71622;SDS011;59473;53.214;5.728;2022-08-18T12:56:20;4.45;;;1.85;;
71622;SDS011;59473;53.214;5.728;2022-08-18T12:58:46;6.07;;;1.92;;
71622;SDS011;59473;53.214;5.728;2022-08-18T13:01:12;5.35;;;1.92;;
71622;SDS011;59473;53.214;5.728;2022-08-18T13:03:37;4.22;;;1.50;;
71622;SDS011;59473;53.214;5.728;2022-08-18T13:06:02;4.83;;;1.60;;
71622;SDS011;59473;53.214;5.728;2022-08-18T13:08:28;5.03;;;1.83;;
71622;SDS011;59473;53.214;5.728;2022-08-18T13:10:53;4.30;;;1.50;;
71622;SDS011;59473;53.214;5.728;2022-08-18T13:13:18;8.52;;;1.65;;
71622;SDS011;59473;53.214;5.728;2022-08-18T13:15:44;5.93;;;1.70;;
71622;SDS011;59473;53.214;5.728;2022-08-18T13:18:10;7.35;;;1.50;;
71622;SDS011;59473;53.214;5.728;2022-08-18T13:20:35;6.47;;;1.60;;
71622;SDS011;59473;53.214;5.728;2022-08-18T13:23:00;5.17;;;1.43;;
71622;SDS011;59473;53.214;5.728;2022-08-18T13:25:26;3.88;;;1.35;;
71622;SDS011;59473;53.214;5.728;2022-08-18T13:27:51;7.13;;;1.70;;
71622;SDS011;59473;53.214;5.728;2022-08-18T13:30:16;4.20;;;1.50;;
71622;SDS011;59473;53.214;5.728;2022-08-18T13:32:42;6.63;;;1.80;;
71622;SDS011;59473;53.214;5.728;2022-08-18T13:35:07;4.70;;;1.50;;
71622;SDS011;59473;53.214;5.728;2022-08-18T13:37:33;6.45;;;1.67;;
71622;SDS011;59473;53.214;5.728;2022-08-18T13:39:58;6.45;;;1.70;;
71622;SDS011;59473;53.214;5.728;2022-08-18T13:42:24;5.10;;;1.80;;
71622;SDS011;59473;53.214;5.728;2022-08-18T13:44:50;4.70;;;1.58;;
71622;SDS011;59473;53.214;5.728;2022-08-18T13:47:15;3.93;;;1.60;;
71622;SDS011;59473;53.214;5.728;2022-08-18T13:49:40;5.73;;;1.60;;
71622;SDS011;59473;53.214;5.728;2022-08-18T13:52:05;5.70;;;1.60;;
71622;SDS011;59473;53.214;5.728;2022-08-18T13:54:31;5.88;;;1.40;;
71622;SDS011;59473;53.214;5.728;2022-08-18T13:56:57;4.37;;;1.40;;
71622;SDS011;59473;53.214;5.728;2022-08-18T13:59:24;6.85;;;1.80;;
71622;SDS011;59473;53.214;5.728;2022-08-18T14:01:55;5.93;;;1.98;;
71622;SDS011;59473;53.214;5.728;2022-08-18T14:04:20;5.90;;;1.80;;
71622;SDS011;59473;53.214;5.728;2022-08-18T14:06:45;8.17;;;1.90;;
71622;SDS011;59473;53.214;5.728;2022-08-18T14:09:11;6.00;;;1.73;;
71622;SDS011;59473;53.214;5.728;2022-08-18T14:11:37;5.22;;;1.80;;
71622;SDS011;59473;53.214;5.728;2022-08-18T14:14:03;6.40;;;2.00;;
71622;SDS011;59473;53.214;5.728;2022-08-18T14:16:29;5.70;;;1.67;;
71622;SDS011;59473;53.214;5.728;2022-08-18T14:18:55;6.13;;;1.75;;
71622;SDS011;59473;53.214;5.728;2022-08-18T14:21:42;4.67;;;1.60;;
71622;SDS011;59473;53.214;5.728;2022-08-18T14:24:27;9.48;;;2.05;;
71622;SDS011;59473;53.214;5.728;2022-08-18T14:27:11;6.15;;;1.83;;
71622;SDS011;59473;53.214;5.728;2022-08-18T14:29:37;5.63;;;2.20;;
71622;SDS011;59473;53.214;5.728;2022-08-18T14:32:02;6.00;;;2.07;;
71622;SDS011;59473;53.214;5.728;2022-08-18T14:34:27;10.27;;;2.33;;
71622;SDS011;59473;53.214;5.728;2022-08-18T14:36:53;6.07;;;1.90;;
71622;SDS011;59473;53.214;5.728;2022-08-18T14:39:18;3.93;;;1.53;;
71622;SDS011;59473;53.214;5.728;2022-08-18T14:41:43;5.30;;;1.90;;
71622;SDS011;59473;53.214;5.728;2022-08-18T14:44:08;12.67;;;2.40;;
71622;SDS011;59473;53.214;5.728;2022-08-18T14:46:37;5.03;;;1.40;;
71622;SDS011;59473;53.214;5.728;2022-08-18T14:49:02;7.60;;;2.53;;
71622;SDS011;59473;53.214;5.728;2022-08-18T14:51:27;7.82;;;2.10;;
71622;SDS011;59473;53.214;5.728;2022-08-18T14:53:53;6.63;;;1.70;;
71622;SDS011;59473;53.214;5.728;2022-08-18T14:56:18;5.78;;;1.58;;
71622;SDS011;59473;53.214;5.728;2022-08-18T14:58:43;5.23;;;1.53;;
71622;SDS011;59473;53.214;5.728;2022-08-18T15:01:09;5.70;;;2.03;;
71622;SDS011;59473;53.214;5.728;2022-08-18T15:03:35;4.75;;;1.80;;
71622;SDS011;59473;53.214;5.728;2022-08-18T15:06:01;6.63;;;2.13;;
71622;SDS011;59473;53.214;5.728;2022-08-18T15:08:27;5.75;;;1.80;;
71622;SDS011;59473;53.214;5.728;2022-08-18T15:10:53;5.03;;;1.63;;
71622;SDS011;59473;53.214;5.728;2022-08-18T15:13:18;3.87;;;1.10;;
71622;SDS011;59473;53.214;5.728;2022-08-18T15:15:43;4.82;;;1.90;;
71622;SDS011;59473;53.214;5.728;2022-08-18T15:18:09;5.27;;;1.60;;
71622;SDS011;59473;53.214;5.728;2022-08-18T15:20:34;5.70;;;1.33;;
71622;SDS011;59473;53.214;5.728;2022-08-18T15:23:20;8.68;;;2.15;;
71622;SDS011;59473;53.214;5.728;2022-08-18T15:26:03;4.05;;;1.42;;
71622;SDS011;59473;53.214;5.728;2022-08-18T15:28:29;5.57;;;1.60;;
71622;SDS011;59473;53.214;5.728;2022-08-18T15:30:54;4.37;;;1.53;;
71622;SDS011;59473;53.214;5.728;2022-08-18T15:33:20;6.50;;;1.90;;
71622;SDS011;59473;53.214;5.728;2022-08-18T15:35:47;6.97;;;1.73;;
71622;SDS011;59473;53.214;5.728;2022-08-18T15:38:16;5.32;;;1.70;;
71622;SDS011;59473;53.214;5.728;2022-08-18T15:40:55;5.97;;;1.65;;
71622;SDS011;59473;53.214;5.728;2022-08-18T15:43:25;5.97;;;1.63;;
71622;SDS011;59473;53.214;5.728;2022-08-18T15:45:51;5.93;;;2.03;;
71622;SDS011;59473;53.214;5.728;2022-08-18T15:48:18;7.22;;;2.30;;
71622;SDS011;59473;53.214;5.728;2022-08-18T15:50:44;7.32;;;2.00;;
71622;SDS011;59473;53.214;5.728;2022-08-18T15:53:12;7.32;;;2.15;;
71622;SDS011;59473;53.214;5.728;2022-08-18T15:55:39;5.63;;;1.90;;
71622;SDS011;59473;53.214;5.728;2022-08-18T15:58:04;5.93;;;2.30;;
71622;SDS011;59473;53.214;5.728;2022-08-18T16:00:30;5.80;;;1.90;;
71622;SDS011;59473;53.214;5.728;2022-08-18T16:03:00;6.85;;;2.00;;
71622;SDS011;59473;53.214;5.728;2022-08-18T16:05:27;7.53;;;1.90;;
71622;SDS011;59473;53.214;5.728;2022-08-18T16:07:54;6.85;;;1.88;;
71622;SDS011;59473;53.214;5.728;2022-08-18T16:10:20;5.63;;;1.92;;
71622;SDS011;59473;53.214;5.728;2022-08-18T16:12:45;6.00;;;1.90;;
71622;SDS011;59473;53.214;5.728;2022-08-18T16:15:12;6.33;;;1.90;;
71622;SDS011;59473;53.214;5.728;2022-08-18T16:17:38;8.63;;;2.63;;
71622;SDS011;59473;53.214;5.728;2022-08-18T16:20:04;4.77;;;1.83;;
71622;SDS011;59473;53.214;5.728;2022-08-18T16:22:29;7.55;;;2.13;;
71622;SDS011;59473;53.214;5.728;2022-08-18T16:24:57;6.85;;;2.15;;
71622;SDS011;59473;53.214;5.728;2022-08-18T16:27:22;5.47;;;1.80;;
71622;SDS011;59473;53.214;5.728;2022-08-18T16:29:47;8.50;;;2.13;;
71622;SDS011;59473;53.214;5.728;2022-08-18T16:32:13;6.17;;;1.80;;
71622;SDS011;59473;53.214;5.728;2022-08-18T16:34:38;8.98;;;2.10;;
71622;SDS011;59473;53.214;5.728;2022-08-18T16:37:05;6.13;;;1.70;;
71622;SDS011;59473;53.214;5.728;2022-08-18T16:39:32;13.15;;;1.95;;
71622;SDS011;59473;53.214;5.728;2022-08-18T16:41:58;8.00;;;1.87;;
71622;SDS011;59473;53.214;5.728;2022-08-18T16:44:23;5.87;;;1.60;;
71622;SDS011;59473;53.214;5.728;2022-08-18T16:46:48;10.43;;;1.80;;
71622;SDS011;59473;53.214;5.728;2022-08-18T16:49:15;5.68;;;1.77;;
71622;SDS011;59473;53.214;5.728;2022-08-18T16:51:41;7.57;;;1.80;;
71622;SDS011;59473;53.214;5.728;2022-08-18T16:54:09;6.82;;;1.80;;